Time;durP1;ratioP1;P1;durP2;ratioP2;P2;SDS_P1;SDS_P2;PMS_P1;PMS_P2;Temp;Humidity;BMP_temperature;BMP_pressure;BME280_temperature;BME280_humidity;BME280_pressure;Samples;Min_cycle;Max_cycle;Signal;HPM_P1;HPM_P2
2022/03/10 00:01:17;;;;;;;9.65;8.65;;;6.80;78.10;;;;;;4914035;29;20259;-61
2022/03/10 00:03:45;;;;;;;8.80;7.18;;;6.60;78.30;;;;;;4914836;29;20209;-61
2022/03/10 00:06:14;;;;;;;11.52;8.88;;;6.60;84.70;;;;;;4915081;29;20224;-62
2022/03/10 00:08:42;;;;;;;9.52;8.60;;;6.50;83.70;;;;;;4914859;29;20670;-61
2022/03/10 00:11:10;;;;;;;9.80;8.80;;;6.60;87.10;;;;;;4914789;29;20935;-61
2022/03/10 00:13:41;;;;;;;9.88;8.02;;;6.70;80.10;;;;;;4915766;29;20643;-62
2022/03/10 00:16:09;;;;;;;11.60;8.60;;;6.80;87.40;;;;;;4914378;29;20212;-61
2022/03/10 00:18:37;;;;;;;10.32;9.23;;;6.80;82.40;;;;;;4914191;29;20216;-61
2022/03/10 00:21:05;;;;;;;8.50;7.70;;;6.80;79.50;;;;;;4914954;29;20322;-61
2022/03/10 00:23:34;;;;;;;10.35;9.45;;;6.70;87.10;;;;;;4914585;29;20672;-61
2022/03/10 00:26:02;;;;;;;9.77;8.18;;;6.70;80.40;;;;;;4915060;29;20201;-61
2022/03/10 00:28:29;;;;;;;10.52;8.82;;;6.70;83.50;;;;;;4914295;29;20327;-62
2022/03/10 00:30:57;;;;;;;9.57;8.48;;;6.70;83.40;;;;;;4913938;29;20299;-61
2022/03/10 00:33:25;;;;;;;9.95;8.52;;;6.60;83.70;;;;;;4914341;29;20261;-62
2022/03/10 00:35:53;;;;;;;11.35;8.68;;;6.70;83.40;;;;;;4914361;29;20337;-62
2022/03/10 00:38:21;;;;;;;10.00;8.38;;;6.80;89.10;;;;;;4908294;29;20648;-61
2022/03/10 00:40:51;;;;;;;9.27;8.30;;;7.00;84.00;;;;;;4908144;29;20587;-61
2022/03/10 00:43:19;;;;;;;12.27;8.55;;;7.00;87.30;;;;;;4909389;29;20207;-61
2022/03/10 00:45:50;;;;;;;9.27;8.40;;;7.10;85.40;;;;;;4919629;29;20218;-61
2022/03/10 00:48:18;;;;;;;11.68;8.70;;;7.10;86.40;;;;;;4917862;29;20205;-62
2022/03/10 00:50:45;;;;;;;11.05;8.75;;;7.20;84.00;;;;;;4918440;29;20288;-62
2022/03/10 00:53:13;;;;;;;9.65;8.40;;;7.20;85.80;;;;;;4917514;29;20717;-61
2022/03/10 00:55:41;;;;;;;10.50;9.50;;;7.10;81.10;;;;;;4918285;29;20228;-61
2022/03/10 00:58:10;;;;;;;9.07;8.27;;;6.70;79.60;;;;;;4917856;29;20284;-61
2022/03/10 01:00:38;;;;;;;8.93;8.02;;;6.70;82.40;;;;;;4917890;29;20327;-61
2022/03/10 01:03:08;;;;;;;9.82;8.82;;;6.50;83.50;;;;;;4917504;29;20228;-61
2022/03/10 01:05:36;;;;;;;10.48;9.43;;;6.20;80.10;;;;;;4918210;29;20224;-60
2022/03/10 01:08:04;;;;;;;10.38;9.38;;;6.00;80.50;;;;;;4917544;29;20292;-61
2022/03/10 01:10:32;;;;;;;10.18;9.15;;;6.10;81.10;;;;;;4917980;29;20213;-62
2022/03/10 01:13:00;;;;;;;9.23;8.30;;;6.00;84.80;;;;;;4918205;29;20940;-61
2022/03/10 01:15:30;;;;;;;9.63;8.75;;;6.10;89.60;;;;;;4925077;29;20215;-61
2022/03/10 01:17:58;;;;;;;11.23;8.65;;;6.30;90.50;;;;;;4917511;29;20207;-62
2022/03/10 01:20:26;;;;;;;9.55;8.65;;;6.60;90.50;;;;;;4917717;29;20233;-61
2022/03/10 01:22:54;;;;;;;10.88;8.05;;;6.60;86.80;;;;;;4916763;29;20311;-61
2022/03/10 01:25:22;;;;;;;9.25;8.30;;;6.70;90.00;;;;;;4917978;29;20249;-60
2022/03/10 01:27:50;;;;;;;11.10;8.65;;;6.70;88.30;;;;;;4917213;29;20205;-61
2022/03/10 01:30:18;;;;;;;9.27;8.48;;;6.80;88.70;;;;;;4917588;29;20228;-61
2022/03/10 01:32:47;;;;;;;9.10;8.20;;;6.80;85.10;;;;;;4917204;29;20259;-61
2022/03/10 01:35:16;;;;;;;9.90;9.02;;;6.80;86.50;;;;;;4917649;29;20243;-61
2022/03/10 01:37:44;;;;;;;10.07;8.30;;;6.80;86.90;;;;;;4917485;29;20234;-61
2022/03/10 01:40:15;;;;;;;8.57;7.68;;;6.80;83.00;;;;;;4917620;29;20263;-61
2022/03/10 01:42:43;;;;;;;8.70;7.90;;;6.80;89.30;;;;;;4917839;29;20758;-60
2022/03/10 01:45:12;;;;;;;10.27;8.07;;;6.80;84.10;;;;;;4921893;29;20716;-61
2022/03/10 01:47:41;;;;;;;9.10;7.43;;;6.70;82.90;;;;;;4918671;29;20235;-61
2022/03/10 01:50:12;;;;;;;9.60;8.60;;;6.60;89.20;;;;;;4917407;29;20288;-61
2022/03/10 01:52:40;;;;;;;12.50;9.30;;;6.50;83.80;;;;;;4917342;29;20627;-61
2022/03/10 01:55:09;;;;;;;8.50;7.70;;;6.50;86.10;;;;;;4916990;29;20288;-60
2022/03/10 01:57:38;;;;;;;8.85;7.95;;;6.50;90.10;;;;;;4916888;29;20239;-60
2022/03/10 02:00:07;;;;;;;9.45;8.63;;;6.60;89.30;;;;;;4916898;29;20233;-60
2022/03/10 02:02:36;;;;;;;10.38;9.27;;;6.50;82.00;;;;;;4916428;29;20366;-60
2022/03/10 02:05:05;;;;;;;9.38;8.43;;;6.40;87.80;;;;;;4917222;29;20209;-61
2022/03/10 02:10:20;;;;;;;8.60;7.85;;;6.20;83.10;;;;;;4914146;29;20236;-61
2022/03/10 02:12:49;;;;;;;10.07;9.13;;;6.00;90.30;;;;;;4916675;29;20277;-60
2022/03/10 02:18:06;;;;;;;9.70;8.80;;;6.10;86.90;;;;;;4916229;29;20286;-60
2022/03/10 02:20:34;;;;;;;8.95;8.05;;;6.10;87.10;;;;;;4917076;29;20580;-61
2022/03/10 02:23:04;;;;;;;10.63;9.15;;;6.10;86.00;;;;;;4916276;29;20244;-61
2022/03/10 02:25:35;;;;;;;8.05;7.25;;;6.10;91.00;;;;;;4916364;29;20232;-61
2022/03/10 02:28:03;;;;;;;10.18;8.00;;;6.20;88.80;;;;;;4916958;29;20193;-61
2022/03/10 02:30:31;;;;;;;8.02;7.25;;;6.10;89.90;;;;;;4916426;29;20295;-61
2022/03/10 02:32:59;;;;;;;9.23;8.30;;;6.20;88.60;;;;;;4910115;29;20304;-62
2022/03/10 02:35:28;;;;;;;9.75;8.75;;;6.30;90.00;;;;;;4913435;29;20311;-61
2022/03/10 02:37:57;;;;;;;8.60;7.80;;;6.40;87.80;;;;;;4915852;29;20674;-61
2022/03/10 02:40:27;;;;;;;10.55;9.52;;;6.40;89.60;;;;;;4916502;29;20291;-61
2022/03/10 02:42:55;;;;;;;9.85;8.85;;;6.30;83.40;;;;;;4916667;29;20287;-61
2022/03/10 02:45:24;;;;;;;10.80;9.70;;;6.00;82.00;;;;;;4921568;29;20239;-61
2022/03/10 02:47:52;;;;;;;9.15;8.25;;;5.90;88.40;;;;;;4919745;29;20729;-60
2022/03/10 02:50:22;;;;;;;10.68;9.68;;;5.80;89.40;;;;;;4916462;29;20207;-61
2022/03/10 02:52:50;;;;;;;9.27;8.15;;;5.70;84.40;;;;;;4916000;29;20276;-60
2022/03/10 02:55:18;;;;;;;8.73;7.85;;;5.60;88.50;;;;;;4916143;29;20295;-61
2022/03/10 02:57:47;;;;;;;9.88;8.98;;;5.60;91.90;;;;;;4916310;29;20244;-60
2022/03/10 03:00:16;;;;;;;9.95;9.05;;;5.70;86.90;;;;;;4915727;29;20287;-59
2022/03/10 03:02:44;;;;;;;9.52;8.60;;;5.60;87.40;;;;;;4911517;29;20316;-59
2022/03/10 03:05:13;;;;;;;10.98;8.82;;;5.60;90.00;;;;;;4915589;29;20216;-60
2022/03/10 03:07:43;;;;;;;10.35;9.40;;;5.40;89.80;;;;;;4915608;29;20236;-60
2022/03/10 03:10:12;;;;;;;9.52;8.73;;;5.40;85.60;;;;;;4915769;29;20247;-60
2022/03/10 03:12:44;;;;;;;9.30;8.30;;;5.30;92.60;;;;;;4915204;29;20277;-61
2022/03/10 03:15:14;;;;;;;10.63;9.70;;;5.20;90.60;;;;;;4921360;29;20287;-60
2022/03/10 03:17:47;;;;;;;10.15;9.15;;;5.10;87.40;;;;;;4915583;29;20205;-61
2022/03/10 03:20:15;;;;;;;10.02;9.02;;;5.20;92.20;;;;;;4915655;29;20738;-61
2022/03/10 03:22:44;;;;;;;12.85;9.40;;;5.40;91.30;;;;;;4914915;29;20246;-61
2022/03/10 03:25:14;;;;;;;10.65;9.60;;;5.60;91.80;;;;;;4915425;29;20260;-61
2022/03/10 03:27:45;;;;;;;10.02;9.02;;;5.50;85.40;;;;;;4915181;29;20197;-61
2022/03/10 03:30:15;;;;;;;9.88;8.88;;;5.40;89.80;;;;;;4915423;29;20263;-60
2022/03/10 03:32:44;;;;;;;9.75;8.85;;;5.50;92.30;;;;;;4914991;29;20593;-60
2022/03/10 03:35:12;;;;;;;9.75;8.85;;;5.60;91.40;;;;;;4915437;29;20289;-60
2022/03/10 03:37:39;;;;;;;8.88;8.15;;;5.70;91.10;;;;;;4909353;29;20291;-60
2022/03/10 03:40:09;;;;;;;9.18;8.38;;;5.90;91.70;;;;;;4909350;29;20235;-60
2022/03/10 03:42:37;;;;;;;8.82;7.97;;;6.00;90.90;;;;;;4908783;29;20816;-61
2022/03/10 03:45:09;;;;;;;8.75;7.85;;;5.90;91.80;;;;;;4913321;29;20224;-60
2022/03/10 03:47:38;;;;;;;9.75;8.75;;;5.90;91.00;;;;;;4915411;29;20217;-60
2022/03/10 03:50:07;;;;;;;10.60;9.60;;;6.00;88.70;;;;;;4915095;29;20205;-60
2022/03/10 03:52:35;;;;;;;9.07;8.15;;;6.00;89.10;;;;;;4914718;29;20244;-60
2022/03/10 03:55:09;;;;;;;10.65;8.60;;;5.90;91.70;;;;;;4914868;29;20207;-60
2022/03/10 03:57:37;;;;;;;10.45;8.93;;;5.90;90.30;;;;;;4915283;29;20211;-60
2022/03/10 04:00:08;;;;;;;9.85;8.70;;;5.70;85.40;;;;;;4914849;29;20228;-60
2022/03/10 04:02:36;;;;;;;9.43;8.60;;;5.70;87.00;;;;;;4914538;29;20319;-60
2022/03/10 04:05:06;;;;;;;10.95;9.85;;;5.70;88.90;;;;;;4915040;29;20197;-60
2022/03/10 04:07:35;;;;;;;11.68;10.43;;;5.50;86.70;;;;;;4914423;29;20211;-60
2022/03/10 04:10:03;;;;;;;9.10;8.30;;;5.50;89.10;;;;;;4915000;29;20318;-61
2022/03/10 04:12:32;;;;;;;11.07;8.85;;;5.50;92.90;;;;;;4914641;29;20295;-61
2022/03/10 04:15:00;;;;;;;11.32;8.95;;;5.60;92.10;;;;;;4963246;23;20239;-69
2022/03/10 04:17:28;;;;;;;12.52;10.45;;;5.40;89.50;;;;;;4945349;29;20194;-69
2022/03/10 04:19:56;;;;;;;10.75;9.38;;;5.50;88.40;;;;;;4942608;29;20203;-69
2022/03/10 04:22:25;;;;;;;10.20;9.00;;;5.50;89.80;;;;;;4941368;29;20647;-69
2022/03/10 04:24:53;;;;;;;10.80;9.07;;;5.40;90.90;;;;;;4940680;29;20640;-69
2022/03/10 04:27:21;;;;;;;12.38;10.00;;;5.30;90.10;;;;;;4941221;29;20237;-69
2022/03/10 04:29:49;;;;;;;10.32;9.32;;;5.40;91.10;;;;;;4950156;29;20632;-69
2022/03/10 04:32:17;;;;;;;9.20;8.30;;;5.40;89.80;;;;;;4940824;29;20203;-69
2022/03/10 04:34:45;;;;;;;10.63;8.82;;;5.50;92.30;;;;;;4935700;29;20656;-69
2022/03/10 04:37:13;;;;;;;10.75;9.68;;;5.50;91.10;;;;;;4942704;29;20230;-69
2022/03/10 04:39:42;;;;;;;10.85;9.85;;;5.40;90.40;;;;;;4935838;29;20235;-69
2022/03/10 04:42:10;;;;;;;11.65;9.40;;;5.10;88.40;;;;;;4948081;29;20231;-69
2022/03/10 04:44:38;;;;;;;10.10;9.20;;;5.20;91.40;;;;;;4940607;28;20252;-69
2022/03/10 04:47:06;;;;;;;10.98;9.95;;;5.10;90.30;;;;;;4948618;29;20242;-69
2022/03/10 04:49:34;;;;;;;9.43;8.23;;;4.90;88.80;;;;;;4950659;29;20207;-69
2022/03/10 04:52:01;;;;;;;9.25;8.45;;;4.80;89.70;;;;;;4940548;29;20244;-69
2022/03/10 04:54:29;;;;;;;10.95;9.95;;;4.70;90.10;;;;;;4934730;29;20224;-69
2022/03/10 04:57:00;;;;;;;11.40;10.27;;;4.50;90.90;;;;;;4935139;29;20703;-69
2022/03/10 04:59:31;;;;;;;11.82;10.63;;;4.40;91.90;;;;;;4937176;29;20232;-69
2022/03/10 05:01:59;;;;;;;12.88;9.68;;;4.30;90.10;;;;;;4936713;29;20264;-69
2022/03/10 05:04:27;;;;;;;9.38;8.57;;;4.40;92.60;;;;;;4938226;29;20318;-69
2022/03/10 05:06:55;;;;;;;11.07;9.98;;;4.70;92.70;;;;;;4940385;29;20720;-69
2022/03/10 05:09:23;;;;;;;9.60;8.70;;;4.70;90.10;;;;;;4938683;29;20208;-69
2022/03/10 05:11:51;;;;;;;10.80;9.80;;;4.70;91.80;;;;;;4935575;29;20625;-69
2022/03/10 05:14:20;;;;;;;10.13;9.23;;;4.70;91.50;;;;;;4940656;28;20702;-69
2022/03/10 05:16:48;;;;;;;10.68;9.48;;;4.60;90.70;;;;;;4944368;28;20196;-69
2022/03/10 05:19:16;;;;;;;10.75;9.65;;;4.60;92.40;;;;;;4937820;29;20315;-69
2022/03/10 05:21:44;;;;;;;9.25;8.43;;;4.60;92.60;;;;;;4943649;28;20227;-69
2022/03/10 05:24:12;;;;;;;10.35;9.35;;;5.00;93.90;;;;;;4940626;29;20220;-69
2022/03/10 05:26:40;;;;;;;9.55;8.55;;;5.30;92.70;;;;;;4941701;29;20228;-69
2022/03/10 05:29:08;;;;;;;10.48;9.38;;;5.30;92.30;;;;;;4940007;29;20236;-68
2022/03/10 05:31:39;;;;;;;12.70;9.18;;;5.40;90.60;;;;;;4939848;28;20203;-69
2022/03/10 05:34:08;;;;;;;11.63;10.63;;;5.30;91.90;;;;;;4951373;28;20227;-69
2022/03/10 05:36:36;;;;;;;11.55;10.38;;;5.40;90.00;;;;;;4939928;28;20223;-69
2022/03/10 05:39:05;;;;;;;11.77;9.52;;;5.30;92.70;;;;;;4938361;28;20752;-69
2022/03/10 05:41:33;;;;;;;11.50;10.40;;;5.20;89.30;;;;;;4955506;29;20226;-72
2022/03/10 05:44:01;;;;;;;11.20;10.10;;;5.20;88.70;;;;;;4944910;28;20879;-69
2022/03/10 05:46:29;;;;;;;11.35;10.20;;;4.90;89.70;;;;;;4952902;28;20210;-71
2022/03/10 05:48:58;;;;;;;10.45;9.45;;;4.80;90.10;;;;;;4940042;28;20211;-71
2022/03/10 05:51:26;;;;;;;11.02;10.02;;;4.60;90.10;;;;;;4947864;28;20718;-71
2022/03/10 05:53:54;;;;;;;10.25;9.35;;;4.40;90.10;;;;;;4944777;28;20302;-71
2022/03/10 05:56:22;;;;;;;12.25;11.05;;;4.20;90.50;;;;;;4935481;28;20235;-71
2022/03/10 05:58:49;;;;;;;12.88;10.80;;;4.10;90.60;;;;;;4938704;28;20235;-71
2022/03/10 06:01:17;;;;;;;12.18;11.07;;;3.90;90.80;;;;;;4933307;28;20239;-71
2022/03/10 06:03:48;;;;;;;12.00;10.48;;;3.90;90.90;;;;;;4936584;28;20244;-71
2022/03/10 06:06:17;;;;;;;12.10;10.90;;;3.90;91.10;;;;;;4935148;28;20724;-72
2022/03/10 06:08:45;;;;;;;11.73;10.43;;;3.90;91.20;;;;;;4937578;28;20263;-70
2022/03/10 06:11:13;;;;;;;12.65;11.50;;;3.90;91.10;;;;;;4932332;28;20811;-71
2022/03/10 06:13:41;;;;;;;11.13;10.13;;;3.80;91.40;;;;;;4936960;28;20318;-71
2022/03/10 06:16:09;;;;;;;11.73;10.63;;;3.80;91.40;;;;;;4941745;28;20231;-68
2022/03/10 06:18:37;;;;;;;11.50;10.30;;;3.90;91.40;;;;;;4939882;28;20215;-68
2022/03/10 06:21:07;;;;;;;12.57;10.05;;;3.90;91.70;;;;;;4939337;28;20214;-67
2022/03/10 06:23:36;;;;;;;12.07;9.50;;;4.00;91.70;;;;;;4934368;28;20242;-69
2022/03/10 06:26:04;;;;;;;10.45;9.45;;;3.90;91.60;;;;;;4932236;28;20826;-69
2022/03/10 06:28:32;;;;;;;12.18;10.65;;;4.00;91.70;;;;;;4937099;28;20327;-71
2022/03/10 06:31:00;;;;;;;11.70;10.20;;;4.00;91.90;;;;;;4943676;28;20845;-69
2022/03/10 06:33:28;;;;;;;11.77;10.57;;;4.00;91.90;;;;;;4941572;28;20227;-69
2022/03/10 06:35:56;;;;;;;11.02;9.98;;;4.10;92.00;;;;;;4939298;28;20300;-68
2022/03/10 06:38:23;;;;;;;10.82;9.75;;;4.10;92.20;;;;;;4936606;28;20286;-71
2022/03/10 06:40:53;;;;;;;12.15;10.52;;;4.10;92.10;;;;;;4946387;28;20808;-69
2022/03/10 06:43:21;;;;;;;12.30;11.18;;;4.20;91.80;;;;;;4933085;28;20267;-68
2022/03/10 06:45:49;;;;;;;11.95;9.68;;;4.30;91.80;;;;;;4942208;28;20286;-71
2022/03/10 06:48:17;;;;;;;12.50;11.30;;;4.30;91.80;;;;;;4938583;28;20208;-70
2022/03/10 06:50:45;;;;;;;12.38;11.13;;;4.40;91.60;;;;;;4934195;28;20305;-68
2022/03/10 06:53:13;;;;;;;11.40;10.05;;;4.50;91.30;;;;;;4940450;28;20200;-68
2022/03/10 06:55:40;;;;;;;12.95;11.35;;;4.60;91.10;;;;;;4931657;28;20227;-69
2022/03/10 06:58:10;;;;;;;12.77;11.48;;;4.70;91.60;;;;;;4934075;28;20307;-70
2022/03/10 07:00:38;;;;;;;12.77;11.48;;;4.80;91.70;;;;;;4946066;28;20204;-69
2022/03/10 07:03:06;;;;;;;14.50;11.73;;;4.90;91.50;;;;;;4938472;28;20665;-69
2022/03/10 07:05:34;;;;;;;12.43;11.13;;;5.00;91.40;;;;;;4933349;28;20227;-68
2022/03/10 07:08:02;;;;;;;12.63;11.45;;;5.00;91.30;;;;;;4942827;28;20214;-69
2022/03/10 07:10:30;;;;;;;12.77;11.48;;;5.10;91.50;;;;;;4937503;28;20295;-67
2022/03/10 07:12:57;;;;;;;13.70;11.00;;;5.20;91.20;;;;;;4935882;28;20298;-69
2022/03/10 07:15:27;;;;;;;19.73;12.25;;;5.40;91.00;;;;;;4932458;28;20318;-68
2022/03/10 07:17:55;;;;;;;13.75;11.05;;;5.40;91.40;;;;;;4942013;28;20263;-69
2022/03/10 07:20:23;;;;;;;12.57;11.30;;;5.50;91.10;;;;;;4935719;28;20203;-68
2022/03/10 07:22:50;;;;;;;12.05;10.85;;;5.60;90.90;;;;;;4936190;28;20223;-69
2022/03/10 07:25:20;;;;;;;11.88;10.60;;;5.70;91.20;;;;;;4936986;28;20866;-68
2022/03/10 07:27:48;;;;;;;12.95;11.55;;;5.80;90.80;;;;;;4944768;28;20259;-69
2022/03/10 07:30:16;;;;;;;12.75;10.85;;;5.80;91.10;;;;;;4936108;28;20306;-68
2022/03/10 07:32:45;;;;;;;13.13;11.40;;;6.00;90.80;;;;;;4931195;28;20650;-68
2022/03/10 07:35:13;;;;;;;14.02;12.50;;;6.00;90.60;;;;;;4936312;28;20343;-69
2022/03/10 07:37:41;;;;;;;12.88;11.10;;;6.20;90.60;;;;;;4933850;28;20218;-69
2022/03/10 07:40:10;;;;;;;14.65;11.50;;;6.40;90.60;;;;;;4933433;28;20235;-69
2022/03/10 07:42:38;;;;;;;13.70;12.25;;;6.50;90.20;;;;;;4935599;28;20299;-69
2022/03/10 07:45:07;;;;;;;12.18;11.05;;;6.60;89.40;;;;;;4940170;28;20233;-69
2022/03/10 07:47:34;;;;;;;13.32;12.05;;;6.70;88.80;;;;;;4939051;28;20260;-70
2022/03/10 07:50:05;;;;;;;14.20;12.00;;;6.70;88.80;;;;;;4939886;28;20302;-71
2022/03/10 07:52:33;;;;;;;13.02;10.93;;;6.80;88.10;;;;;;4938102;28;20290;-71
2022/03/10 07:55:05;;;;;;;12.90;11.55;;;7.00;88.00;;;;;;4939015;28;20314;-71
2022/03/10 07:57:34;;;;;;;12.85;11.35;;;7.00;87.60;;;;;;4935251;28;20321;-71
2022/03/10 08:00:04;;;;;;;17.10;11.70;;;7.20;88.50;;;;;;4934941;28;20291;-71
2022/03/10 08:02:32;;;;;;;15.23;12.63;;;7.20;87.30;;;;;;4932306;28;20301;-70
2022/03/10 08:05:00;;;;;;;13.48;12.07;;;7.30;86.90;;;;;;4938343;28;20223;-70
2022/03/10 08:07:32;;;;;;;15.25;12.05;;;7.30;87.30;;;;;;4939302;28;20204;-71
2022/03/10 08:10:00;;;;;;;15.55;12.43;;;7.40;87.60;;;;;;4937904;28;20215;-71
2022/03/10 08:12:29;;;;;;;13.02;11.45;;;7.40;87.40;;;;;;4930580;28;20211;-71
2022/03/10 08:14:57;;;;;;;13.88;11.98;;;7.50;86.50;;;;;;4939472;28;20319;-72
2022/03/10 08:17:26;;;;;;;13.25;11.77;;;7.60;87.40;;;;;;4941928;28;20231;-70
2022/03/10 08:19:54;;;;;;;14.88;12.20;;;7.70;86.20;;;;;;4943078;28;20208;-72
2022/03/10 08:22:24;;;;;;;14.57;12.52;;;7.80;85.50;;;;;;4938400;28;20247;-68
2022/03/10 08:24:53;;;;;;;16.00;11.48;;;7.90;85.70;;;;;;4940068;28;20235;-72
2022/03/10 08:27:21;;;;;;;16.15;14.07;;;8.10;85.50;;;;;;4947136;28;20231;-71
2022/03/10 08:29:49;;;;;;;14.48;11.35;;;8.30;85.40;;;;;;4935029;28;20242;-71
2022/03/10 08:32:17;;;;;;;16.05;12.40;;;8.50;84.40;;;;;;4934371;28;20211;-74
2022/03/10 08:34:45;;;;;;;12.93;11.07;;;8.60;85.10;;;;;;4932763;28;20275;-72
2022/03/10 08:37:15;;;;;;;14.50;12.75;;;8.50;83.90;;;;;;4941611;28;20706;-73
2022/03/10 08:39:43;;;;;;;15.45;11.48;;;8.60;83.90;;;;;;4936727;28;20219;-74
2022/03/10 08:42:12;;;;;;;13.05;11.70;;;8.70;84.00;;;;;;4939721;28;20211;-71
2022/03/10 08:44:40;;;;;;;16.75;11.90;;;8.80;83.90;;;;;;4936964;28;20719;-71
2022/03/10 08:47:08;;;;;;;18.50;12.88;;;8.90;83.20;;;;;;4952202;28;20302;-71
2022/03/10 08:49:36;;;;;;;13.13;11.70;;;8.90;82.80;;;;;;4947127;28;20298;-73
2022/03/10 08:52:05;;;;;;;17.50;12.10;;;9.10;83.20;;;;;;4931422;28;20236;-72
2022/03/10 08:54:33;;;;;;;13.48;11.80;;;9.40;82.70;;;;;;4934727;28;20771;-69
2022/03/10 08:57:00;;;;;;;16.80;12.00;;;9.70;82.20;;;;;;4939553;28;20295;-71
2022/03/10 08:59:33;;;;;;;18.77;12.45;;;9.80;81.40;;;;;;4938192;28;20207;-70
2022/03/10 09:02:00;;;;;;;18.13;11.35;;;9.90;81.30;;;;;;4938432;28;20307;-69
2022/03/10 09:04:29;;;;;;;15.10;12.68;;;10.00;81.80;;;;;;4932947;28;20232;-71
2022/03/10 09:06:57;;;;;;;14.65;11.35;;;10.00;81.00;;;;;;4930859;28;20208;-72
2022/03/10 09:09:26;;;;;;;16.92;12.90;;;10.20;79.90;;;;;;4934854;28;20215;-73
2022/03/10 09:11:54;;;;;;;13.75;12.10;;;10.30;81.10;;;;;;4932411;28;21351;-72
2022/03/10 09:14:21;;;;;;;15.38;12.52;;;10.30;80.20;;;;;;4942948;28;20270;-72
2022/03/10 09:16:52;;;;;;;14.65;11.85;;;10.50;80.20;;;;;;4939164;28;20236;-72
2022/03/10 09:19:20;;;;;;;13.80;11.48;;;10.70;79.80;;;;;;4937932;28;20307;-72
2022/03/10 09:21:48;;;;;;;16.15;11.60;;;10.60;79.00;;;;;;4943761;28;20239;-71
2022/03/10 09:24:16;;;;;;;13.35;11.85;;;10.70;80.00;;;;;;4942825;28;20412;-73
2022/03/10 09:26:44;;;;;;;14.50;12.48;;;10.70;79.90;;;;;;4936033;28;20312;-71
2022/03/10 09:29:12;;;;;;;14.85;12.35;;;11.00;79.30;;;;;;4933804;28;20635;-71
2022/03/10 09:31:40;;;;;;;15.30;12.93;;;11.10;79.70;;;;;;4935162;28;20752;-71
2022/03/10 09:34:09;;;;;;;14.10;12.70;;;11.20;77.80;;;;;;4931602;28;20290;-72
2022/03/10 09:36:37;;;;;;;14.70;13.20;;;11.40;78.90;;;;;;4935173;28;20311;-73
2022/03/10 09:39:05;;;;;;;15.50;13.15;;;11.50;78.50;;;;;;4932724;28;20243;-71
2022/03/10 09:41:37;;;;;;;14.10;12.70;;;11.80;78.40;;;;;;4943780;28;20235;-69
2022/03/10 09:44:12;;;;;;;15.30;13.02;;;11.90;77.00;;;;;;4947405;28;20247;-70
2022/03/10 09:46:41;;;;;;;15.63;11.93;;;12.00;77.80;;;;;;4947510;28;20263;-68
2022/03/10 09:49:10;;;;;;;14.40;12.80;;;12.20;76.30;;;;;;4938167;28;20219;-69
2022/03/10 09:51:38;;;;;;;15.90;11.43;;;12.40;76.50;;;;;;4940235;28;20259;-68
2022/03/10 09:54:06;;;;;;;14.70;13.20;;;12.50;75.70;;;;;;4939060;28;20787;-70
2022/03/10 09:56:36;;;;;;;13.30;11.90;;;12.50;74.30;;;;;;4939348;28;20295;-68
2022/03/10 09:59:07;;;;;;;15.13;13.07;;;12.70;75.50;;;;;;4941217;28;21081;-68
2022/03/10 10:01:35;;;;;;;17.95;13.75;;;13.00;75.70;;;;;;4938275;28;20290;-68
2022/03/10 10:04:04;;;;;;;14.27;12.88;;;13.20;73.70;;;;;;4939239;28;20230;-68
2022/03/10 10:06:53;;;;;;;15.85;13.02;;;13.20;74.00;;;;;;4933365;28;20233;-69
2022/03/10 10:09:21;;;;;;;14.77;12.20;;;13.00;72.80;;;;;;4952271;28;20222;-70
2022/03/10 10:11:49;;;;;;;12.77;11.55;;;13.30;72.70;;;;;;4944392;28;20215;-68
2022/03/10 10:14:36;;;;;;;14.65;13.15;;;13.50;73.10;;;;;;4939508;28;20263;-68
2022/03/10 10:17:04;;;;;;;18.95;12.23;;;13.80;72.30;;;;;;4942264;28;20323;-69
2022/03/10 10:19:34;;;;;;;13.75;12.38;;;13.70;72.60;;;;;;4935580;28;20242;-69
2022/03/10 10:22:24;;;;;;;14.32;12.93;;;13.70;71.90;;;;;;4932001;28;20216;-68
2022/03/10 10:24:53;;;;;;;13.88;12.07;;;14.00;72.40;;;;;;4938111;28;20278;-69
2022/03/10 10:27:23;;;;;;;14.27;11.70;;;14.30;72.00;;;;;;4941250;28;20560;-72
2022/03/10 10:29:53;;;;;;;14.23;12.65;;;14.70;71.20;;;;;;4935643;28;20220;-71
2022/03/10 10:32:26;;;;;;;15.55;13.18;;;14.90;70.80;;;;;;4935947;28;20208;-68
2022/03/10 10:35:07;;;;;;;14.82;12.77;;;15.20;70.30;;;;;;4936102;28;20232;-71
2022/03/10 10:37:37;;;;;;;16.20;13.30;;;15.10;68.80;;;;;;4953607;28;20218;-70
2022/03/10 10:40:09;;;;;;;15.95;13.82;;;15.20;69.40;;;;;;4937483;28;20217;-70
2022/03/10 10:42:39;;;;;;;14.05;12.50;;;15.20;69.60;;;;;;4935820;28;20208;-70
2022/03/10 10:45:29;;;;;;;15.52;13.32;;;15.50;70.60;;;;;;4943739;28;21027;-70
2022/03/10 10:48:01;;;;;;;15.60;13.27;;;15.60;69.50;;;;;;4942978;28;20210;-70
2022/03/10 10:50:30;;;;;;;13.07;11.75;;;15.70;69.40;;;;;;4934362;28;20582;-70
2022/03/10 10:53:00;;;;;;;14.35;12.85;;;15.80;67.70;;;;;;4937290;28;20200;-71
2022/03/10 10:55:35;;;;;;;13.48;12.10;;;15.70;68.50;;;;;;4934543;28;20238;-69
2022/03/10 10:58:07;;;;;;;14.40;12.85;;;16.00;67.40;;;;;;4942866;28;20636;-70
2022/03/10 11:00:44;;;;;;;15.00;12.55;;;16.00;66.90;;;;;;4938581;28;20668;-69
2022/03/10 11:03:23;;;;;;;14.90;13.13;;;16.20;65.80;;;;;;4953438;28;20691;-70
2022/03/10 11:05:53;;;;;;;13.68;11.07;;;16.30;67.50;;;;;;4938016;28;20234;-70
2022/03/10 11:08:24;;;;;;;13.43;12.13;;;16.40;66.00;;;;;;4935507;28;20271;-69
2022/03/10 11:10:52;;;;;;;14.77;12.68;;;16.80;65.40;;;;;;4940207;28;20303;-69
2022/03/10 11:13:22;;;;;;;13.07;11.70;;;16.90;65.90;;;;;;4935657;28;20204;-69
2022/03/10 11:15:51;;;;;;;13.90;11.88;;;16.70;64.70;;;;;;4938397;28;20228;-70
2022/03/10 11:18:22;;;;;;;13.10;11.80;;;16.80;64.70;;;;;;4931052;28;20298;-70
2022/03/10 11:20:56;;;;;;;16.10;12.07;;;16.50;65.10;;;;;;4934624;28;20268;-70
2022/03/10 11:23:40;;;;;;;14.60;12.93;;;16.60;65.90;;;;;;4933057;28;20199;-69
2022/03/10 11:26:11;;;;;;;14.18;12.68;;;16.80;64.70;;;;;;4934091;28;20310;-69
2022/03/10 11:28:45;;;;;;;13.77;12.38;;;16.90;65.60;;;;;;4936264;28;20290;-69
2022/03/10 11:31:14;;;;;;;14.07;12.57;;;16.90;65.70;;;;;;4945300;28;20709;-69
2022/03/10 11:33:43;;;;;;;12.63;11.52;;;17.30;65.70;;;;;;4938522;28;20234;-70
2022/03/10 11:36:21;;;;;;;12.40;11.27;;;17.30;63.80;;;;;;4932688;28;20620;-72
2022/03/10 11:38:55;;;;;;;14.95;10.57;;;17.60;64.40;;;;;;4936012;28;20231;-70
2022/03/10 11:41:25;;;;;;;11.50;10.30;;;18.00;63.30;;;;;;4936779;28;20207;-70
2022/03/10 11:43:58;;;;;;;10.90;9.85;;;18.20;61.20;;;;;;4938477;28;20243;-69
2022/03/10 11:46:28;;;;;;;11.10;9.70;;;18.50;60.50;;;;;;4938717;28;20891;-70
2022/03/10 11:49:05;;;;;;;9.77;8.75;;;18.80;60.70;;;;;;4932828;28;20219;-70
2022/03/10 11:51:52;;;;;;;11.73;9.55;;;18.70;59.60;;;;;;4934860;28;20295;-68
2022/03/10 11:54:23;;;;;;;9.52;8.52;;;19.40;60.80;;;;;;4929470;28;20264;-70
2022/03/10 11:57:04;;;;;;;9.02;8.13;;;19.70;59.10;;;;;;4935951;28;20224;-69
2022/03/10 11:59:48;;;;;;;8.15;7.35;;;19.90;58.70;;;;;;4945117;28;20215;-70
2022/03/10 12:02:41;;;;;;;9.02;7.75;;;20.00;57.10;;;;;;4933502;28;20231;-70
2022/03/10 12:05:10;;;;;;;7.80;7.00;;;20.20;56.40;;;;;;4935816;28;20234;-70
2022/03/10 12:07:42;;;;;;;7.03;6.32;;;20.10;55.90;;;;;;4930083;28;20311;-70
2022/03/10 12:10:14;;;;;;;7.93;7.22;;;20.60;56.00;;;;;;4930420;28;20200;-69
2022/03/10 12:12:45;;;;;;;8.85;7.28;;;20.60;55.30;;;;;;4930833;28;20862;-70
2022/03/10 12:15:42;;;;;;;7.90;6.78;;;20.30;56.00;;;;;;4939982;28;20241;-69
2022/03/10 12:18:23;;;;;;;7.15;6.45;;;20.20;55.40;;;;;;4933572;28;20255;-70
2022/03/10 12:20:57;;;;;;;8.23;7.30;;;20.30;55.80;;;;;;4931387;28;20202;-70
2022/03/10 12:23:27;;;;;;;7.45;6.75;;;20.60;55.20;;;;;;4936027;28;20266;-70
2022/03/10 12:26:00;;;;;;;8.32;7.53;;;20.70;54.90;;;;;;4940604;28;20295;-70
2022/03/10 12:28:34;;;;;;;6.18;5.65;;;20.70;54.60;;;;;;4932628;28;20258;-69
2022/03/10 12:31:11;;;;;;;7.80;6.72;;;20.50;54.90;;;;;;4929897;28;20212;-71
2022/03/10 12:33:46;;;;;;;7.22;6.53;;;20.40;54.50;;;;;;4932977;28;20224;-71
2022/03/10 12:36:15;;;;;;;9.30;7.00;;;21.10;54.50;;;;;;4933688;28;20246;-70
2022/03/10 12:38:46;;;;;;;6.88;6.18;;;21.40;53.60;;;;;;4931051;28;20204;-70
2022/03/10 12:41:17;;;;;;;6.88;6.20;;;21.30;53.90;;;;;;4932392;28;20234;-70
2022/03/10 12:43:53;;;;;;;7.22;6.53;;;21.20;53.70;;;;;;4943130;28;20232;-69
2022/03/10 12:46:22;;;;;;;7.45;6.75;;;21.20;52.60;;;;;;4939902;28;20203;-68
2022/03/10 12:48:59;;;;;;;6.30;5.70;;;21.20;52.80;;;;;;4936510;28;20232;-70
2022/03/10 12:51:30;;;;;;;5.22;4.07;;;21.00;52.90;;;;;;4934654;28;20314;-70
2022/03/10 12:54:01;;;;;;;4.35;3.95;;;21.10;52.30;;;;;;4942354;28;20300;-70
2022/03/10 12:56:43;;;;;;;4.93;4.25;;;21.00;52.40;;;;;;4938202;28;20615;-71
2022/03/10 12:59:11;;;;;;;5.13;4.63;;;21.00;52.10;;;;;;4937690;28;20643;-70
2022/03/10 13:01:39;;;;;;;4.72;4.20;;;20.70;52.10;;;;;;4934190;28;20303;-72